sensor_id;sensor_type;location;lat;lon;timestamp;temperature;humidity
23815;DHT22;12088;53.078;8.720;2023-03-01T00:02:16;-1.20;99.90
23815;DHT22;12088;53.078;8.720;2023-03-01T00:04:41;-1.20;99.90
23815;DHT22;12088;53.078;8.720;2023-03-01T00:07:07;-1.30;99.90
23815;DHT22;12088;53.078;8.720;2023-03-01T00:09:32;-1.20;99.90
23815;DHT22;12088;53.078;8.720;2023-03-01T00:11:58;-1.20;99.90
23815;DHT22;12088;53.078;8.720;2023-03-01T00:14:23;-1.20;99.90
23815;DHT22;12088;53.078;8.720;2023-03-01T00:16:49;-1.30;99.90
23815;DHT22;12088;53.078;8.720;2023-03-01T00:19:17;-1.20;99.90
23815;DHT22;12088;53.078;8.720;2023-03-01T00:21:43;-1.10;99.90
23815;DHT22;12088;53.078;8.720;2023-03-01T00:24:10;-1.20;99.90
23815;DHT22;12088;53.078;8.720;2023-03-01T00:26:35;-1.30;99.90
23815;DHT22;12088;53.078;8.720;2023-03-01T00:29:01;-1.30;99.90
23815;DHT22;12088;53.078;8.720;2023-03-01T00:31:29;-1.10;99.90
23815;DHT22;12088;53.078;8.720;2023-03-01T00:33:57;-0.90;99.90
23815;DHT22;12088;53.078;8.720;2023-03-01T00:36:24;-0.90;99.90
23815;DHT22;12088;53.078;8.720;2023-03-01T00:38:50;-1.00;99.90
23815;DHT22;12088;53.078;8.720;2023-03-01T00:41:17;-0.90;99.90
23815;DHT22;12088;53.078;8.720;2023-03-01T00:43:44;-1.00;99.90
23815;DHT22;12088;53.078;8.720;2023-03-01T00:46:13;-1.10;99.90
23815;DHT22;12088;53.078;8.720;2023-03-01T00:48:38;-1.20;99.90
23815;DHT22;12088;53.078;8.720;2023-03-01T00:51:09;-1.30;99.90
23815;DHT22;12088;53.078;8.720;2023-03-01T00:53:35;-1.40;99.90
23815;DHT22;12088;53.078;8.720;2023-03-01T00:56:01;-1.40;99.90
23815;DHT22;12088;53.078;8.720;2023-03-01T00:58:30;-1.40;99.90
23815;DHT22;12088;53.078;8.720;2023-03-01T01:00:56;-1.50;99.90
23815;DHT22;12088;53.078;8.720;2023-03-01T01:03:22;-1.50;99.90
23815;DHT22;12088;53.078;8.720;2023-03-01T01:05:52;-1.30;99.90
23815;DHT22;12088;53.078;8.720;2023-03-01T01:08:19;-1.20;99.90
23815;DHT22;12088;53.078;8.720;2023-03-01T01:10:45;-1.10;99.90
23815;DHT22;12088;53.078;8.720;2023-03-01T01:13:11;-1.10;99.90
23815;DHT22;12088;53.078;8.720;2023-03-01T01:15:37;-1.00;99.90
23815;DHT22;12088;53.078;8.720;2023-03-01T01:18:03;-0.90;99.90
23815;DHT22;12088;53.078;8.720;2023-03-01T01:20:28;-1.00;99.90
23815;DHT22;12088;53.078;8.720;2023-03-01T01:22:54;-1.20;99.90
23815;DHT22;12088;53.078;8.720;2023-03-01T01:25:20;-1.40;99.90
23815;DHT22;12088;53.078;8.720;2023-03-01T01:27:45;-1.40;99.90
23815;DHT22;12088;53.078;8.720;2023-03-01T01:30:11;-1.40;99.90
23815;DHT22;12088;53.078;8.720;2023-03-01T01:32:37;-1.30;99.90
23815;DHT22;12088;53.078;8.720;2023-03-01T01:35:03;-1.10;99.90
23815;DHT22;12088;53.078;8.720;2023-03-01T01:37:28;-1.00;99.90
23815;DHT22;12088;53.078;8.720;2023-03-01T01:40:02;-0.80;99.90
23815;DHT22;12088;53.078;8.720;2023-03-01T01:42:30;-0.70;99.90
23815;DHT22;12088;53.078;8.720;2023-03-01T01:45:31;-0.70;99.90
23815;DHT22;12088;53.078;8.720;2023-03-01T01:48:03;-0.80;99.90
23815;DHT22;12088;53.078;8.720;2023-03-01T01:50:30;-1.00;99.90
23815;DHT22;12088;53.078;8.720;2023-03-01T01:53:04;-1.40;99.90
23815;DHT22;12088;53.078;8.720;2023-03-01T01:55:31;-1.50;99.90
23815;DHT22;12088;53.078;8.720;2023-03-01T01:58:00;-1.70;99.90
23815;DHT22;12088;53.078;8.720;2023-03-01T02:00:28;-1.80;99.90
23815;DHT22;12088;53.078;8.720;2023-03-01T02:02:57;-1.80;99.90
23815;DHT22;12088;53.078;8.720;2023-03-01T02:05:35;-1.70;99.90
23815;DHT22;12088;53.078;8.720;2023-03-01T02:08:02;-1.60;99.90
23815;DHT22;12088;53.078;8.720;2023-03-01T02:10:29;-1.50;99.90
23815;DHT22;12088;53.078;8.720;2023-03-01T02:12:55;-1.50;99.90
23815;DHT22;12088;53.078;8.720;2023-03-01T02:15:23;-1.80;99.90
23815;DHT22;12088;53.078;8.720;2023-03-01T02:17:49;-2.00;99.90
23815;DHT22;12088;53.078;8.720;2023-03-01T02:20:40;-1.90;99.90
23815;DHT22;12088;53.078;8.720;2023-03-01T02:23:10;-1.90;99.90
23815;DHT22;12088;53.078;8.720;2023-03-01T02:25:51;-2.00;99.90
23815;DHT22;12088;53.078;8.720;2023-03-01T02:28:30;-1.90;99.90
23815;DHT22;12088;53.078;8.720;2023-03-01T02:30:56;-1.90;99.90
23815;DHT22;12088;53.078;8.720;2023-03-01T02:33:41;-2.00;99.90
23815;DHT22;12088;53.078;8.720;2023-03-01T02:36:10;-1.90;99.90
23815;DHT22;12088;53.078;8.720;2023-03-01T02:38:39;-1.90;99.90
23815;DHT22;12088;53.078;8.720;2023-03-01T02:41:05;-1.90;99.90
23815;DHT22;12088;53.078;8.720;2023-03-01T02:43:33;-1.90;99.90
23815;DHT22;12088;53.078;8.720;2023-03-01T02:46:04;-2.00;99.90
23815;DHT22;12088;53.078;8.720;2023-03-01T02:48:40;-2.10;99.90
23815;DHT22;12088;53.078;8.720;2023-03-01T02:56:24;-2.20;99.90
23815;DHT22;12088;53.078;8.720;2023-03-01T02:58:50;-2.20;99.90
23815;DHT22;12088;53.078;8.720;2023-03-01T03:01:18;-2.20;99.90
23815;DHT22;12088;53.078;8.720;2023-03-01T03:03:44;-2.20;99.90
23815;DHT22;12088;53.078;8.720;2023-03-01T03:06:09;-2.20;99.90
23815;DHT22;12088;53.078;8.720;2023-03-01T03:08:35;-2.20;99.90
23815;DHT22;12088;53.078;8.720;2023-03-01T03:11:00;-2.10;99.90
23815;DHT22;12088;53.078;8.720;2023-03-01T03:13:27;-1.90;99.90
23815;DHT22;12088;53.078;8.720;2023-03-01T03:15:55;-1.80;99.90
23815;DHT22;12088;53.078;8.720;2023-03-01T03:18:21;-1.70;99.90
23815;DHT22;12088;53.078;8.720;2023-03-01T03:20:47;-1.50;99.90
23815;DHT22;12088;53.078;8.720;2023-03-01T03:23:18;-1.50;99.90
23815;DHT22;12088;53.078;8.720;2023-03-01T03:25:44;-1.40;99.90
23815;DHT22;12088;53.078;8.720;2023-03-01T03:28:09;-1.50;99.90
23815;DHT22;12088;53.078;8.720;2023-03-01T03:30:38;-1.50;99.90
23815;DHT22;12088;53.078;8.720;2023-03-01T03:33:06;-1.50;99.90
23815;DHT22;12088;53.078;8.720;2023-03-01T03:35:39;-1.50;99.90
23815;DHT22;12088;53.078;8.720;2023-03-01T03:38:08;-1.60;99.90
23815;DHT22;12088;53.078;8.720;2023-03-01T03:40:43;-1.60;99.90
23815;DHT22;12088;53.078;8.720;2023-03-01T03:43:18;-1.50;99.90
23815;DHT22;12088;53.078;8.720;2023-03-01T03:45:45;-1.60;99.90
23815;DHT22;12088;53.078;8.720;2023-03-01T03:48:11;-1.70;99.90
23815;DHT22;12088;53.078;8.720;2023-03-01T03:50:38;-1.80;99.90
23815;DHT22;12088;53.078;8.720;2023-03-01T03:53:07;-1.80;99.90
23815;DHT22;12088;53.078;8.720;2023-03-01T03:55:33;-1.80;99.90
23815;DHT22;12088;53.078;8.720;2023-03-01T03:58:00;-1.90;99.90
23815;DHT22;12088;53.078;8.720;2023-03-01T04:00:32;-1.80;99.90
23815;DHT22;12088;53.078;8.720;2023-03-01T04:02:58;-1.80;99.90
23815;DHT22;12088;53.078;8.720;2023-03-01T04:05:24;-1.90;99.90
23815;DHT22;12088;53.078;8.720;2023-03-01T04:07:49;-1.90;99.90
23815;DHT22;12088;53.078;8.720;2023-03-01T04:10:30;-1.90;99.90
23815;DHT22;12088;53.078;8.720;2023-03-01T04:12:56;-1.90;99.90
23815;DHT22;12088;53.078;8.720;2023-03-01T04:15:23;-2.00;99.90
23815;DHT22;12088;53.078;8.720;2023-03-01T04:17:50;-2.00;99.90
23815;DHT22;12088;53.078;8.720;2023-03-01T04:20:22;-2.00;99.90
23815;DHT22;12088;53.078;8.720;2023-03-01T04:22:53;-2.00;99.90
23815;DHT22;12088;53.078;8.720;2023-03-01T04:25:22;-2.00;99.90
23815;DHT22;12088;53.078;8.720;2023-03-01T04:27:48;-2.00;99.90
23815;DHT22;12088;53.078;8.720;2023-03-01T04:30:14;-2.10;99.90
23815;DHT22;12088;53.078;8.720;2023-03-01T04:32:40;-2.20;99.90
23815;DHT22;12088;53.078;8.720;2023-03-01T04:35:05;-2.10;99.90
23815;DHT22;12088;53.078;8.720;2023-03-01T04:37:31;-2.10;99.90
23815;DHT22;12088;53.078;8.720;2023-03-01T04:39:56;-2.20;99.90
23815;DHT22;12088;53.078;8.720;2023-03-01T04:42:23;-2.30;99.90
23815;DHT22;12088;53.078;8.720;2023-03-01T04:44:48;-2.30;99.90
23815;DHT22;12088;53.078;8.720;2023-03-01T04:47:16;-2.50;99.90
23815;DHT22;12088;53.078;8.720;2023-03-01T04:49:42;-2.60;99.90
23815;DHT22;12088;53.078;8.720;2023-03-01T04:52:07;-2.70;99.90
23815;DHT22;12088;53.078;8.720;2023-03-01T04:54:34;-2.70;99.90
23815;DHT22;12088;53.078;8.720;2023-03-01T04:57:01;-2.80;99.90
23815;DHT22;12088;53.078;8.720;2023-03-01T04:59:27;-2.80;99.90
23815;DHT22;12088;53.078;8.720;2023-03-01T05:01:54;-2.80;99.90
23815;DHT22;12088;53.078;8.720;2023-03-01T05:04:21;-2.80;99.90
23815;DHT22;12088;53.078;8.720;2023-03-01T05:06:47;-2.80;99.90
23815;DHT22;12088;53.078;8.720;2023-03-01T05:09:12;-2.70;99.90
23815;DHT22;12088;53.078;8.720;2023-03-01T05:11:38;-2.60;99.90
23815;DHT22;12088;53.078;8.720;2023-03-01T05:14:05;-2.50;99.90
23815;DHT22;12088;53.078;8.720;2023-03-01T05:16:31;-2.30;99.90
23815;DHT22;12088;53.078;8.720;2023-03-01T05:18:58;-2.30;99.90
23815;DHT22;12088;53.078;8.720;2023-03-01T05:21:23;-2.20;99.90
23815;DHT22;12088;53.078;8.720;2023-03-01T05:23:49;-2.10;99.90
23815;DHT22;12088;53.078;8.720;2023-03-01T05:26:16;-2.10;99.90
23815;DHT22;12088;53.078;8.720;2023-03-01T05:28:43;-2.10;99.90
23815;DHT22;12088;53.078;8.720;2023-03-01T05:31:09;-2.20;99.90
23815;DHT22;12088;53.078;8.720;2023-03-01T05:33:39;-2.30;99.90
23815;DHT22;12088;53.078;8.720;2023-03-01T05:36:06;-2.30;99.90
23815;DHT22;12088;53.078;8.720;2023-03-01T05:38:33;-2.40;99.90
23815;DHT22;12088;53.078;8.720;2023-03-01T05:40:58;-2.50;99.90
23815;DHT22;12088;53.078;8.720;2023-03-01T05:43:24;-2.50;99.90
23815;DHT22;12088;53.078;8.720;2023-03-01T05:45:50;-2.50;99.90
23815;DHT22;12088;53.078;8.720;2023-03-01T05:48:15;-2.60;99.90
23815;DHT22;12088;53.078;8.720;2023-03-01T05:50:42;-2.70;99.90
23815;DHT22;12088;53.078;8.720;2023-03-01T05:53:19;-2.70;99.90
23815;DHT22;12088;53.078;8.720;2023-03-01T05:55:47;-2.80;99.90
23815;DHT22;12088;53.078;8.720;2023-03-01T05:58:15;-2.60;99.90
23815;DHT22;12088;53.078;8.720;2023-03-01T06:00:43;-2.40;99.90
23815;DHT22;12088;53.078;8.720;2023-03-01T06:03:10;-2.30;99.90
23815;DHT22;12088;53.078;8.720;2023-03-01T06:05:36;-2.30;99.90
23815;DHT22;12088;53.078;8.720;2023-03-01T06:08:02;-2.10;99.90
23815;DHT22;12088;53.078;8.720;2023-03-01T06:10:27;-2.10;99.90
23815;DHT22;12088;53.078;8.720;2023-03-01T06:12:53;-2.20;99.90
23815;DHT22;12088;53.078;8.720;2023-03-01T06:15:19;-2.20;99.90
23815;DHT22;12088;53.078;8.720;2023-03-01T06:17:45;-2.30;99.90
23815;DHT22;12088;53.078;8.720;2023-03-01T06:20:14;-2.40;99.90
23815;DHT22;12088;53.078;8.720;2023-03-01T06:22:41;-2.50;99.90
23815;DHT22;12088;53.078;8.720;2023-03-01T06:25:07;-2.50;99.90
23815;DHT22;12088;53.078;8.720;2023-03-01T06:27:33;-2.60;99.90
23815;DHT22;12088;53.078;8.720;2023-03-01T06:29:59;-2.70;99.90
23815;DHT22;12088;53.078;8.720;2023-03-01T06:32:24;-2.60;99.90
23815;DHT22;12088;53.078;8.720;2023-03-01T06:34:50;-2.50;99.90
23815;DHT22;12088;53.078;8.720;2023-03-01T06:37:16;-2.50;99.90
23815;DHT22;12088;53.078;8.720;2023-03-01T06:39:41;-2.60;99.90
23815;DHT22;12088;53.078;8.720;2023-03-01T06:42:08;-2.60;99.90
23815;DHT22;12088;53.078;8.720;2023-03-01T06:44:35;-2.60;99.90
23815;DHT22;12088;53.078;8.720;2023-03-01T06:47:01;-2.40;99.90
23815;DHT22;12088;53.078;8.720;2023-03-01T06:49:26;-2.40;99.90
23815;DHT22;12088;53.078;8.720;2023-03-01T06:51:52;-2.40;99.90
23815;DHT22;12088;53.078;8.720;2023-03-01T06:54:17;-2.40;99.90
23815;DHT22;12088;53.078;8.720;2023-03-01T06:56:46;-2.30;99.90
23815;DHT22;12088;53.078;8.720;2023-03-01T06:59:11;-2.20;99.90
23815;DHT22;12088;53.078;8.720;2023-03-01T07:01:37;-2.10;99.90
23815;DHT22;12088;53.078;8.720;2023-03-01T07:04:02;-1.90;99.90
23815;DHT22;12088;53.078;8.720;2023-03-01T07:06:28;-1.70;99.90
23815;DHT22;12088;53.078;8.720;2023-03-01T07:08:53;-1.40;99.90
23815;DHT22;12088;53.078;8.720;2023-03-01T07:11:19;-1.30;99.90
23815;DHT22;12088;53.078;8.720;2023-03-01T07:13:44;-1.20;99.90
23815;DHT22;12088;53.078;8.720;2023-03-01T07:16:09;-1.00;99.90
23815;DHT22;12088;53.078;8.720;2023-03-01T07:18:35;-0.80;99.90
23815;DHT22;12088;53.078;8.720;2023-03-01T07:21:08;-0.70;99.90
23815;DHT22;12088;53.078;8.720;2023-03-01T07:23:34;-0.60;99.90
23815;DHT22;12088;53.078;8.720;2023-03-01T07:26:00;-0.50;99.90
23815;DHT22;12088;53.078;8.720;2023-03-01T07:28:26;-0.30;99.90
23815;DHT22;12088;53.078;8.720;2023-03-01T07:30:52;0.20;99.90
23815;DHT22;12088;53.078;8.720;2023-03-01T07:33:18;0.30;99.90
23815;DHT22;12088;53.078;8.720;2023-03-01T07:35:43;0.20;99.90
23815;DHT22;12088;53.078;8.720;2023-03-01T07:38:09;0.50;99.90
23815;DHT22;12088;53.078;8.720;2023-03-01T07:40:35;0.50;99.90
23815;DHT22;12088;53.078;8.720;2023-03-01T07:43:00;0.50;99.90
23815;DHT22;12088;53.078;8.720;2023-03-01T07:45:27;0.40;99.90
23815;DHT22;12088;53.078;8.720;2023-03-01T07:47:53;0.50;99.90
23815;DHT22;12088;53.078;8.720;2023-03-01T07:50:19;0.40;99.90
23815;DHT22;12088;53.078;8.720;2023-03-01T07:52:46;0.30;99.90
23815;DHT22;12088;53.078;8.720;2023-03-01T07:55:12;0.20;99.90
23815;DHT22;12088;53.078;8.720;2023-03-01T07:57:38;0.00;99.90
23815;DHT22;12088;53.078;8.720;2023-03-01T08:00:04;0.10;99.90
23815;DHT22;12088;53.078;8.720;2023-03-01T08:02:30;0.30;99.90
23815;DHT22;12088;53.078;8.720;2023-03-01T08:04:55;0.70;99.90
23815;DHT22;12088;53.078;8.720;2023-03-01T08:07:21;0.90;99.90
23815;DHT22;12088;53.078;8.720;2023-03-01T08:09:46;1.10;99.90
23815;DHT22;12088;53.078;8.720;2023-03-01T08:12:12;1.10;99.90
23815;DHT22;12088;53.078;8.720;2023-03-01T08:14:38;1.10;99.90
23815;DHT22;12088;53.078;8.720;2023-03-01T08:17:03;1.50;99.90
23815;DHT22;12088;53.078;8.720;2023-03-01T08:19:29;1.80;99.90
23815;DHT22;12088;53.078;8.720;2023-03-01T08:21:54;2.20;99.90
23815;DHT22;12088;53.078;8.720;2023-03-01T08:24:20;2.40;99.90
23815;DHT22;12088;53.078;8.720;2023-03-01T08:26:45;2.90;99.90
23815;DHT22;12088;53.078;8.720;2023-03-01T08:29:11;3.40;99.90
23815;DHT22;12088;53.078;8.720;2023-03-01T08:31:39;3.40;99.90
23815;DHT22;12088;53.078;8.720;2023-03-01T08:34:08;3.60;99.90
23815;DHT22;12088;53.078;8.720;2023-03-01T08:36:39;3.50;99.90
23815;DHT22;12088;53.078;8.720;2023-03-01T08:39:05;3.40;99.90
23815;DHT22;12088;53.078;8.720;2023-03-01T08:41:31;3.60;99.90
23815;DHT22;12088;53.078;8.720;2023-03-01T08:43:57;3.60;99.90
23815;DHT22;12088;53.078;8.720;2023-03-01T08:46:30;3.80;99.90
23815;DHT22;12088;53.078;8.720;2023-03-01T08:48:55;3.70;99.90
23815;DHT22;12088;53.078;8.720;2023-03-01T08:51:21;4.10;99.90
23815;DHT22;12088;53.078;8.720;2023-03-01T08:53:47;4.40;99.90
23815;DHT22;12088;53.078;8.720;2023-03-01T08:56:13;4.80;99.90
23815;DHT22;12088;53.078;8.720;2023-03-01T08:58:38;5.20;99.90
23815;DHT22;12088;53.078;8.720;2023-03-01T09:01:08;5.70;99.90
23815;DHT22;12088;53.078;8.720;2023-03-01T09:03:34;6.20;99.90
23815;DHT22;12088;53.078;8.720;2023-03-01T09:06:00;6.60;99.90
23815;DHT22;12088;53.078;8.720;2023-03-01T09:08:27;7.00;99.90
23815;DHT22;12088;53.078;8.720;2023-03-01T09:10:52;7.70;99.90
23815;DHT22;12088;53.078;8.720;2023-03-01T09:13:17;9.00;99.90
23815;DHT22;12088;53.078;8.720;2023-03-01T09:15:43;10.30;99.90
23815;DHT22;12088;53.078;8.720;2023-03-01T09:18:08;11.10;99.90
23815;DHT22;12088;53.078;8.720;2023-03-01T09:20:34;11.20;99.90
23815;DHT22;12088;53.078;8.720;2023-03-01T09:23:00;11.10;99.90
23815;DHT22;12088;53.078;8.720;2023-03-01T09:25:25;11.90;99.90
23815;DHT22;12088;53.078;8.720;2023-03-01T09:27:52;13.10;99.90
23815;DHT22;12088;53.078;8.720;2023-03-01T09:30:17;13.60;99.90
23815;DHT22;12088;53.078;8.720;2023-03-01T09:32:43;13.00;99.90
23815;DHT22;12088;53.078;8.720;2023-03-01T09:35:10;12.90;99.90
23815;DHT22;12088;53.078;8.720;2023-03-01T09:37:36;13.70;99.90
23815;DHT22;12088;53.078;8.720;2023-03-01T09:40:06;13.40;99.90
23815;DHT22;12088;53.078;8.720;2023-03-01T09:42:34;13.70;99.90
23815;DHT22;12088;53.078;8.720;2023-03-01T09:45:11;13.50;99.90
23815;DHT22;12088;53.078;8.720;2023-03-01T09:47:40;12.60;99.90
23815;DHT22;12088;53.078;8.720;2023-03-01T09:50:15;13.10;99.90
23815;DHT22;12088;53.078;8.720;2023-03-01T09:52:46;13.50;99.90
23815;DHT22;12088;53.078;8.720;2023-03-01T09:55:25;14.30;99.90
23815;DHT22;12088;53.078;8.720;2023-03-01T09:58:04;15.60;99.90
23815;DHT22;12088;53.078;8.720;2023-03-01T10:00:36;16.50;99.90
23815;DHT22;12088;53.078;8.720;2023-03-01T10:03:17;17.10;99.90
23815;DHT22;12088;53.078;8.720;2023-03-01T10:05:56;15.10;99.90
23815;DHT22;12088;53.078;8.720;2023-03-01T10:08:46;13.20;99.90
23815;DHT22;12088;53.078;8.720;2023-03-01T10:11:22;13.20;99.90
23815;DHT22;12088;53.078;8.720;2023-03-01T10:13:59;12.60;99.90
23815;DHT22;12088;53.078;8.720;2023-03-01T10:16:50;14.50;99.90
23815;DHT22;12088;53.078;8.720;2023-03-01T10:19:23;15.90;99.90
23815;DHT22;12088;53.078;8.720;2023-03-01T10:21:51;13.50;99.90
23815;DHT22;12088;53.078;8.720;2023-03-01T10:24:18;13.00;99.90
23815;DHT22;12088;53.078;8.720;2023-03-01T10:26:57;13.00;99.90
23815;DHT22;12088;53.078;8.720;2023-03-01T10:29:34;12.60;99.90
23815;DHT22;12088;53.078;8.720;2023-03-01T10:32:04;12.80;99.90
23815;DHT22;12088;53.078;8.720;2023-03-01T10:34:33;12.60;99.90
23815;DHT22;12088;53.078;8.720;2023-03-01T10:37:11;12.90;99.90
23815;DHT22;12088;53.078;8.720;2023-03-01T10:39:37;12.90;99.90
23815;DHT22;12088;53.078;8.720;2023-03-01T10:42:26;13.30;99.90
23815;DHT22;12088;53.078;8.720;2023-03-01T10:44:51;13.90;99.90
23815;DHT22;12088;53.078;8.720;2023-03-01T10:47:26;13.10;99.90
23815;DHT22;12088;53.078;8.720;2023-03-01T10:50:04;13.00;99.90
23815;DHT22;12088;53.078;8.720;2023-03-01T10:52:33;14.20;99.90
23815;DHT22;12088;53.078;8.720;2023-03-01T10:55:36;15.60;99.90
23815;DHT22;12088;53.078;8.720;2023-03-01T10:58:17;14.00;99.90
23815;DHT22;12088;53.078;8.720;2023-03-01T11:01:02;13.70;99.90
23815;DHT22;12088;53.078;8.720;2023-03-01T11:03:38;12.80;99.90
23815;DHT22;12088;53.078;8.720;2023-03-01T11:06:19;12.80;99.90
23815;DHT22;12088;53.078;8.720;2023-03-01T11:08:48;13.30;99.90
23815;DHT22;12088;53.078;8.720;2023-03-01T11:13:58;13.30;99.90
23815;DHT22;12088;53.078;8.720;2023-03-01T11:16:36;13.80;99.90
23815;DHT22;12088;53.078;8.720;2023-03-01T11:21:41;13.90;99.90
23815;DHT22;12088;53.078;8.720;2023-03-01T11:24:13;13.80;99.90
23815;DHT22;12088;53.078;8.720;2023-03-01T11:26:41;14.10;99.90
23815;DHT22;12088;53.078;8.720;2023-03-01T11:29:25;14.10;99.90
23815;DHT22;12088;53.078;8.720;2023-03-01T11:31:51;14.30;99.90
23815;DHT22;12088;53.078;8.720;2023-03-01T11:34:28;13.60;99.90
23815;DHT22;12088;53.078;8.720;2023-03-01T11:37:00;13.90;99.90
23815;DHT22;12088;53.078;8.720;2023-03-01T11:39:32;14.00;99.90
23815;DHT22;12088;53.078;8.720;2023-03-01T11:42:14;14.00;99.90
23815;DHT22;12088;53.078;8.720;2023-03-01T11:44:41;14.00;99.90
23815;DHT22;12088;53.078;8.720;2023-03-01T11:50:17;13.80;99.90
23815;DHT22;12088;53.078;8.720;2023-03-01T12:06:45;14.60;99.90
23815;DHT22;12088;53.078;8.720;2023-03-01T12:09:53;13.80;99.90
23815;DHT22;12088;53.078;8.720;2023-03-01T12:12:29;13.10;99.90
23815;DHT22;12088;53.078;8.720;2023-03-01T12:18:12;13.00;99.90
23815;DHT22;12088;53.078;8.720;2023-03-01T12:20:56;13.50;99.90
23815;DHT22;12088;53.078;8.720;2023-03-01T12:26:20;14.00;99.90
23815;DHT22;12088;53.078;8.720;2023-03-01T12:29:07;13.10;99.90
23815;DHT22;12088;53.078;8.720;2023-03-01T12:31:59;12.30;99.90
23815;DHT22;12088;53.078;8.720;2023-03-01T12:34:53;12.10;99.90
23815;DHT22;12088;53.078;8.720;2023-03-01T12:37:42;14.10;99.90
23815;DHT22;12088;53.078;8.720;2023-03-01T12:45:59;13.60;99.90
23815;DHT22;12088;53.078;8.720;2023-03-01T12:48:38;13.00;99.90
23815;DHT22;12088;53.078;8.720;2023-03-01T12:51:13;13.90;99.90
23815;DHT22;12088;53.078;8.720;2023-03-01T12:53:42;14.00;99.90
23815;DHT22;12088;53.078;8.720;2023-03-01T12:56:12;13.20;99.90
23815;DHT22;12088;53.078;8.720;2023-03-01T12:58:51;12.30;99.90
23815;DHT22;12088;53.078;8.720;2023-03-01T13:04:17;13.20;99.90
23815;DHT22;12088;53.078;8.720;2023-03-01T13:07:11;12.50;99.90
23815;DHT22;12088;53.078;8.720;2023-03-01T13:12:52;13.70;99.90
23815;DHT22;12088;53.078;8.720;2023-03-01T13:15:31;14.50;99.90
23815;DHT22;12088;53.078;8.720;2023-03-01T13:20:52;13.70;99.90
23815;DHT22;12088;53.078;8.720;2023-03-01T13:33:59;14.60;99.90
23815;DHT22;12088;53.078;8.720;2023-03-01T13:44:13;13.10;99.90
23815;DHT22;12088;53.078;8.720;2023-03-01T13:46:44;13.60;99.90
23815;DHT22;12088;53.078;8.720;2023-03-01T13:49:14;13.80;99.90
23815;DHT22;12088;53.078;8.720;2023-03-01T13:51:41;13.80;99.90
23815;DHT22;12088;53.078;8.720;2023-03-01T13:54:11;13.80;99.90
23815;DHT22;12088;53.078;8.720;2023-03-01T13:56:37;14.00;99.90
23815;DHT22;12088;53.078;8.720;2023-03-01T13:59:18;14.10;99.90
23815;DHT22;12088;53.078;8.720;2023-03-01T14:01:44;14.80;99.90
23815;DHT22;12088;53.078;8.720;2023-03-01T14:07:20;14.10;99.90
23815;DHT22;12088;53.078;8.720;2023-03-01T14:09:48;14.00;99.90
23815;DHT22;12088;53.078;8.720;2023-03-01T14:18:03;12.90;99.90
23815;DHT22;12088;53.078;8.720;2023-03-01T14:20:42;12.60;99.90
23815;DHT22;12088;53.078;8.720;2023-03-01T14:23:18;12.40;99.90
23815;DHT22;12088;53.078;8.720;2023-03-01T14:25:48;12.80;99.90
23815;DHT22;12088;53.078;8.720;2023-03-01T14:28:24;12.40;99.90
23815;DHT22;12088;53.078;8.720;2023-03-01T14:30:53;13.40;99.90
23815;DHT22;12088;53.078;8.720;2023-03-01T14:33:35;12.50;99.90
23815;DHT22;12088;53.078;8.720;2023-03-01T14:36:08;12.80;99.90
23815;DHT22;12088;53.078;8.720;2023-03-01T14:38:45;12.60;99.90
23815;DHT22;12088;53.078;8.720;2023-03-01T14:41:17;12.40;99.90
23815;DHT22;12088;53.078;8.720;2023-03-01T14:43:51;12.30;99.90
23815;DHT22;12088;53.078;8.720;2023-03-01T14:46:20;12.10;99.90
23815;DHT22;12088;53.078;8.720;2023-03-01T14:48:49;11.80;99.90
23815;DHT22;12088;53.078;8.720;2023-03-01T14:51:15;11.80;99.90
23815;DHT22;12088;53.078;8.720;2023-03-01T14:53:41;11.50;99.90
23815;DHT22;12088;53.078;8.720;2023-03-01T14:56:14;11.20;99.90
23815;DHT22;12088;53.078;8.720;2023-03-01T14:58:40;11.00;99.90
23815;DHT22;12088;53.078;8.720;2023-03-01T15:01:06;10.70;99.90
23815;DHT22;12088;53.078;8.720;2023-03-01T15:03:47;10.50;99.90
23815;DHT22;12088;53.078;8.720;2023-03-01T15:06:20;10.70;99.90
23815;DHT22;12088;53.078;8.720;2023-03-01T15:08:53;10.30;99.90
23815;DHT22;12088;53.078;8.720;2023-03-01T15:11:30;10.10;99.90
23815;DHT22;12088;53.078;8.720;2023-03-01T15:13:57;9.90;99.90
23815;DHT22;12088;53.078;8.720;2023-03-01T15:16:31;9.50;99.90
23815;DHT22;12088;53.078;8.720;2023-03-01T15:21:27;9.50;99.90
23815;DHT22;12088;53.078;8.720;2023-03-01T15:24:06;9.50;99.90
23815;DHT22;12088;53.078;8.720;2023-03-01T15:26:44;9.70;99.90
23815;DHT22;12088;53.078;8.720;2023-03-01T15:29:18;9.50;99.90
23815;DHT22;12088;53.078;8.720;2023-03-01T15:32:01;9.30;99.90
23815;DHT22;12088;53.078;8.720;2023-03-01T15:34:31;9.10;99.90
23815;DHT22;12088;53.078;8.720;2023-03-01T15:36:59;9.00;99.90
23815;DHT22;12088;53.078;8.720;2023-03-01T15:39:38;9.10;99.90
23815;DHT22;12088;53.078;8.720;2023-03-01T15:42:09;8.50;99.90
23815;DHT22;12088;53.078;8.720;2023-03-01T15:44:36;8.50;99.90
23815;DHT22;12088;53.078;8.720;2023-03-01T15:47:23;8.40;99.90
23815;DHT22;12088;53.078;8.720;2023-03-01T15:49:53;8.20;99.90
23815;DHT22;12088;53.078;8.720;2023-03-01T15:52:26;8.10;99.90
23815;DHT22;12088;53.078;8.720;2023-03-01T15:54:59;7.90;99.90
23815;DHT22;12088;53.078;8.720;2023-03-01T15:57:25;7.70;99.90
23815;DHT22;12088;53.078;8.720;2023-03-01T15:59:50;7.80;99.90
23815;DHT22;12088;53.078;8.720;2023-03-01T16:02:16;7.70;99.90
23815;DHT22;12088;53.078;8.720;2023-03-01T16:04:41;7.90;99.90
23815;DHT22;12088;53.078;8.720;2023-03-01T16:07:08;7.80;99.90
23815;DHT22;12088;53.078;8.720;2023-03-01T16:09:35;7.50;99.90
23815;DHT22;12088;53.078;8.720;2023-03-01T16:12:01;7.40;99.90
23815;DHT22;12088;53.078;8.720;2023-03-01T16:14:27;7.40;99.90
23815;DHT22;12088;53.078;8.720;2023-03-01T16:16:52;7.40;99.90
23815;DHT22;12088;53.078;8.720;2023-03-01T16:19:18;7.40;99.90
23815;DHT22;12088;53.078;8.720;2023-03-01T16:21:43;7.50;99.90
23815;DHT22;12088;53.078;8.720;2023-03-01T16:24:12;7.30;99.90
23815;DHT22;12088;53.078;8.720;2023-03-01T16:26:37;7.20;99.90
23815;DHT22;12088;53.078;8.720;2023-03-01T16:29:03;7.20;99.90
23815;DHT22;12088;53.078;8.720;2023-03-01T16:31:29;7.00;99.90
23815;DHT22;12088;53.078;8.720;2023-03-01T16:33:57;6.90;99.90
23815;DHT22;12088;53.078;8.720;2023-03-01T16:36:23;6.70;99.90
23815;DHT22;12088;53.078;8.720;2023-03-01T16:38:50;6.80;99.90
23815;DHT22;12088;53.078;8.720;2023-03-01T16:41:18;6.60;99.90
23815;DHT22;12088;53.078;8.720;2023-03-01T16:43:44;6.50;99.90
23815;DHT22;12088;53.078;8.720;2023-03-01T16:46:14;6.40;99.90
23815;DHT22;12088;53.078;8.720;2023-03-01T16:48:40;6.30;99.90
23815;DHT22;12088;53.078;8.720;2023-03-01T16:51:07;6.30;99.90
23815;DHT22;12088;53.078;8.720;2023-03-01T16:53:33;6.20;99.90
23815;DHT22;12088;53.078;8.720;2023-03-01T16:56:03;6.20;99.90
23815;DHT22;12088;53.078;8.720;2023-03-01T16:58:29;6.10;99.90
23815;DHT22;12088;53.078;8.720;2023-03-01T17:00:55;5.90;99.90
23815;DHT22;12088;53.078;8.720;2023-03-01T17:03:23;5.90;99.90
23815;DHT22;12088;53.078;8.720;2023-03-01T17:05:49;6.00;99.90
23815;DHT22;12088;53.078;8.720;2023-03-01T17:08:15;5.70;99.90